Time;durP1;ratioP1;P1;durP2;ratioP2;P2;SDS_P1;SDS_P2;PMS_P1;PMS_P2;Temp;Humidity;BMP_temperature;BMP_pressure;BME280_temperature;BME280_humidity;BME280_pressure;Samples;Min_cycle;Max_cycle;Signal;HPM_P1;HPM_P2
2019/04/23 00:01:23;;;;;;;8.7;5.6;;;;;;;13.3;51.46582;945.2466;;;;
2019/04/23 00:03:29;;;;;;;8.6;5.6;;;;;;;13.31;51.57031;945.2891;;;;
2019/04/23 00:05:53;;;;;;;9.5;5.6;;;;;;;13.21;51.87207;945.2424;;;;
2019/04/23 00:08:19;;;;;;;9.7;5.5;;;;;;;13.19;52.35742;945.2236;;;;
2019/04/23 00:10:44;;;;;;;10.3;6.1;;;;;;;13.17;52.2041;945.1281;;;;
2019/04/23 00:13:09;;;;;;;9.9;5.3;;;;;;;13.09;52.83398;945.1426;;;;
2019/04/23 00:15:42;;;;;;;8.4;5.6;;;;;;;13.03;52.58203;945.0959;;;;
2019/04/23 00:18:00;;;;;;;8.9;5.6;;;;;;;12.99;52.77441;945.0676;;;;
2019/04/23 00:20:25;;;;;;;6.9;5.6;;;;;;;13.02;52.91699;945.0892;;;;
2019/04/23 00:22:50;;;;;;;8.5;5.6;;;;;;;12.88;53.72461;945.0865;;;;
2019/04/23 00:25:27;;;;;;;11.6;5.8;;;;;;;12.91;53.47266;945.0911;;;;
2019/04/23 00:27:40;;;;;;;10.8;6.3;;;;;;;12.93;53.36914;945.0506;;;;
2019/04/23 00:30:07;;;;;;;7.9;5.5;;;;;;;12.87;53.61816;944.9551;;;;
2019/04/23 00:32:33;;;;;;;12.7;6.2;;;;;;;12.9;53.49512;944.9598;;;;
2019/04/23 00:35:10;;;;;;;10.6;5.6;;;;;;;12.83;53.88184;944.8961;;;;
2019/04/23 00:37:49;;;;;;;10.7;6;;;;;;;12.71;54.30664;944.9172;;;;
2019/04/23 00:40:14;;;;;;;9.1;5.7;;;;;;;12.73;54.1582;944.838;;;;
2019/04/23 00:42:39;;;;;;;9;5.8;;;;;;;12.62;54.75781;944.8104;;;;
2019/04/23 00:45:07;;;;;;;10.7;5.9;;;;;;;12.57;54.93848;944.7783;;;;
2019/04/23 00:47:32;;;;;;;11.1;6.3;;;;;;;12.56;55.0293;944.7495;;;;
2019/04/23 00:49:57;;;;;;;11.7;6.3;;;;;;;12.6;54.88379;944.7097;;;;
2019/04/23 00:52:22;;;;;;;13.5;6.3;;;;;;;12.55;55.03906;944.6401;;;;
2019/04/23 00:54:47;;;;;;;11;6.2;;;;;;;12.52;55.16309;944.6236;;;;
2019/04/23 00:57:12;;;;;;;11.8;6.4;;;;;;;12.5;55.50781;944.677;;;;
2019/04/23 00:59:37;;;;;;;10.5;6.2;;;;;;;12.45;55.76855;944.6973;;;;
2019/04/23 01:02:03;;;;;;;8.4;5.9;;;;;;;12.46;55.56055;944.6399;;;;
2019/04/23 01:04:28;;;;;;;9;5.7;;;;;;;12.45;55.7002;944.7219;;;;
2019/04/23 01:06:53;;;;;;;9.4;6.1;;;;;;;12.41;55.56641;944.6295;;;;
2019/04/23 01:09:22;;;;;;;10.2;6.1;;;;;;;12.46;55.52637;944.6873;;;;
2019/04/23 01:11:44;;;;;;;13;6.4;;;;;;;12.39;55.94727;944.6965;;;;
2019/04/23 01:14:10;;;;;;;10.6;6;;;;;;;12.37;56.19824;944.6653;;;;
2019/04/23 01:16:34;;;;;;;11.7;6.2;;;;;;;12.3;55.94727;944.6696;;;;
2019/04/23 01:21:29;;;;;;;10.5;5.9;;;;;;;12.19;56.5791;944.6301;;;;
2019/04/23 01:23:56;;;;;;;7.5;5.7;;;;;;;12.11;57.21973;944.6355;;;;
2019/04/23 01:26:15;;;;;;;13.3;6.2;;;;;;;12.09;56.92773;944.6811;;;;
2019/04/23 01:28:42;;;;;;;12.2;6.1;;;;;;;12.12;56.66504;944.6216;;;;
2019/04/23 01:31:07;;;;;;;10.4;5.9;;;;;;;12.08;57.02832;944.5933;;;;
2019/04/23 01:33:34;;;;;;;12;6.3;;;;;;;12.1;56.97461;944.5223;;;;
2019/04/23 01:35:59;;;;;;;10;6.1;;;;;;;12.04;57.51172;944.5218;;;;
2019/04/23 01:38:24;;;;;;;8.7;6.1;;;;;;;12.08;57.02832;944.4996;;;;
2019/04/23 01:40:52;;;;;;;12;6.6;;;;;;;12.06;57.29297;944.4683;;;;
2019/04/23 01:43:17;;;;;;;12.3;6.3;;;;;;;11.98;57.43359;944.4568;;;;
2019/04/23 01:45:42;;;;;;;9.9;6.2;;;;;;;11.95;57.59082;944.4531;;;;
2019/04/23 01:48:07;;;;;;;8.7;5.9;;;;;;;11.85;57.84375;944.3976;;;;
2019/04/23 01:50:33;;;;;;;10.1;6.2;;;;;;;11.82;58.22168;944.4359;;;;
2019/04/23 01:52:59;;;;;;;8.8;6.2;;;;;;;11.83;57.95898;944.3445;;;;
2019/04/23 01:55:24;;;;;;;10.1;6;;;;;;;11.75;58.36328;944.3044;;;;
2019/04/23 01:57:49;;;;;;;9.6;6;;;;;;;11.78;58.62109;944.3053;;;;
2019/04/23 02:00:14;;;;;;;10.8;6.3;;;;;;;11.73;58.56934;944.3154;;;;
2019/04/23 02:02:39;;;;;;;11.2;6.7;;;;;;;11.63;58.83203;944.303;;;;
2019/04/23 02:05:07;;;;;;;9.7;6;;;;;;;11.65;59.02148;944.2449;;;;
2019/04/23 02:07:32;;;;;;;11.1;6;;;;;;;11.61;59.28125;944.3101;;;;
2019/04/23 02:09:57;;;;;;;11.3;6.6;;;;;;;11.52;59.48926;944.3135;;;;
2019/04/23 02:12:23;;;;;;;10.5;6.3;;;;;;;11.59;59.40723;944.2439;;;;
2019/04/23 02:14:54;;;;;;;10.1;6.4;;;;;;;11.54;59.39844;944.2729;;;;
2019/04/23 02:17:19;;;;;;;8.3;6.3;;;;;;;11.52;59.53516;944.1993;;;;
2019/04/23 02:19:45;;;;;;;10.1;6.1;;;;;;;11.46;59.59668;944.1422;;;;
2019/04/23 02:27:01;;;;;;;12.1;7;;;;;;;11.39;60.19922;944.195;;;;
2019/04/23 02:29:26;;;;;;;9.6;6.4;;;;;;;11.36;60.47363;944.0531;;;;
2019/04/23 02:31:54;;;;;;;9.7;6.4;;;;;;;11.27;60.47168;944.0909;;;;
2019/04/23 02:34:19;;;;;;;11.9;6.6;;;;;;;11.29;60.68164;944.093;;;;
2019/04/23 02:36:44;;;;;;;9.7;6.4;;;;;;;11.27;60.64355;944.0192;;;;
2019/04/23 02:39:10;;;;;;;9.8;6.3;;;;;;;11.23;60.65137;943.9936;;;;
2019/04/23 02:41:35;;;;;;;10.2;6.3;;;;;;;11.28;60.65723;943.9067;;;;
2019/04/23 02:44:05;;;;;;;11;6.6;;;;;;;11.15;61.09082;943.9358;;;;
2019/04/23 02:46:31;;;;;;;9.2;6.1;;;;;;;11.14;61.14746;943.8817;;;;
2019/04/23 02:48:56;;;;;;;9.6;6.2;;;;;;;11.14;61.05371;943.8483;;;;
2019/04/23 02:51:21;;;;;;;11.3;6.9;;;;;;;11.12;61.36328;943.9745;;;;
2019/04/23 02:53:49;;;;;;;7.5;6.7;;;;;;;11.12;61.58203;943.8811;;;;
2019/04/23 02:56:14;;;;;;;10.4;6.6;;;;;;;11.03;61.82422;943.8292;;;;
2019/04/23 02:58:40;;;;;;;12.9;6.8;;;;;;;10.96;62.24121;943.8678;;;;
2019/04/23 03:01:05;;;;;;;8.8;6.3;;;;;;;11.02;61.7998;943.7749;;;;
2019/04/23 03:03:30;;;;;;;11.7;6.3;;;;;;;11.01;61.80957;943.8144;;;;
2019/04/23 03:05:55;;;;;;;11.2;6.4;;;;;;;10.98;62.25488;943.8567;;;;
2019/04/23 03:08:23;;;;;;;9.2;6.5;;;;;;;10.96;62.36816;943.9061;;;;
2019/04/23 03:10:48;;;;;;;13.1;7.1;;;;;;;10.86;62.58496;943.8131;;;;
2019/04/23 03:13:13;;;;;;;9.2;6.3;;;;;;;10.83;62.58203;943.7392;;;;
2019/04/23 03:15:43;;;;;;;9.4;6.3;;;;;;;10.84;62.75488;943.742;;;;
2019/04/23 03:18:09;;;;;;;11.1;6.7;;;;;;;10.8;62.85449;943.7267;;;;
2019/04/23 03:20:34;;;;;;;11.3;6.5;;;;;;;10.71;63.68262;943.6834;;;;
2019/04/23 03:22:55;;;;;;;9.5;6.3;;;;;;;10.68;63.48242;943.7043;;;;
2019/04/23 03:25:23;;;;;;;8.8;6.9;;;;;;;10.71;63.26855;943.7001;;;;
2019/04/23 03:27:44;;;;;;;10.9;7;;;;;;;10.67;63.3877;943.6589;;;;
2019/04/23 03:30:12;;;;;;;10.3;7.1;;;;;;;10.66;63.46777;943.7791;;;;
2019/04/23 03:32:35;;;;;;;9.9;6.4;;;;;;;10.58;64.17188;943.687;;;;
2019/04/23 03:35:00;;;;;;;9.2;6.8;;;;;;;10.54;64.39746;943.7392;;;;
2019/04/23 03:37:25;;;;;;;10;6.8;;;;;;;10.58;64.00977;943.7773;;;;
2019/04/23 03:39:52;;;;;;;12.6;7;;;;;;;10.5;64.55176;943.7875;;;;
2019/04/23 03:42:17;;;;;;;15.9;7.3;;;;;;;10.42;64.85156;943.824;;;;
2019/04/23 03:44:42;;;;;;;10.7;7;;;;;;;10.34;65.20898;943.8506;;;;
2019/04/23 03:47:08;;;;;;;10.4;6.9;;;;;;;10.37;65.02832;943.7366;;;;
2019/04/23 03:49:33;;;;;;;9.8;7;;;;;;;10.35;65.18848;943.8191;;;;
2019/04/23 03:52:00;;;;;;;9.8;6.6;;;;;;;10.35;65.33691;943.6961;;;;
2019/04/23 03:54:25;;;;;;;16.8;7.1;;;;;;;10.39;65.27441;943.7679;;;;
2019/04/23 03:56:51;;;;;;;11.7;7.1;;;;;;;10.36;65.23438;943.7335;;;;
2019/04/23 03:59:16;;;;;;;12.1;7;;;;;;;10.31;65.44629;943.6797;;;;
2019/04/23 04:02:31;;;;;;;9.9;7.2;;;;;;;10.26;65.90137;943.7248;;;;
2019/04/23 04:04:56;;;;;;;13;7.1;;;;;;;10.25;66.00098;943.7269;;;;
2019/04/23 04:07:23;;;;;;;10.3;7.3;;;;;;;10.25;65.74902;943.7563;;;;
2019/04/23 04:09:48;;;;;;;11.1;7.9;;;;;;;10.16;66.2998;943.7374;;;;
2019/04/23 04:12:15;;;;;;;10.7;7.1;;;;;;;10.18;66.00293;943.7392;;;;
2019/04/23 04:14:40;;;;;;;12;7.3;;;;;;;10.19;66.17676;943.7001;;;;
2019/04/23 04:17:05;;;;;;;13.6;7.5;;;;;;;10.1;66.68262;943.7032;;;;
2019/04/23 04:19:30;;;;;;;11.1;7;;;;;;;10.15;66.5293;943.6284;;;;
2019/04/23 04:21:55;;;;;;;11.9;6.8;;;;;;;10.18;66.50977;943.7264;;;;
2019/04/23 04:24:21;;;;;;;12.2;7.3;;;;;;;10.13;66.40918;943.7463;;;;
2019/04/23 04:26:46;;;;;;;12.3;7.4;;;;;;;10.12;66.62891;943.7296;;;;
2019/04/23 04:29:11;;;;;;;10.8;7.4;;;;;;;10.07;66.97754;943.8005;;;;
2019/04/23 04:31:36;;;;;;;12.5;7.4;;;;;;;10.09;66.69238;943.8484;;;;
2019/04/23 04:34:01;;;;;;;12.2;7.4;;;;;;;10.06;66.83789;943.7798;;;;
2019/04/23 04:36:27;;;;;;;11.8;7.4;;;;;;;9.98;67.52832;943.7307;;;;
2019/04/23 04:38:55;;;;;;;11.5;7;;;;;;;9.98;67.45898;943.7601;;;;
2019/04/23 04:41:20;;;;;;;11.3;7.1;;;;;;;9.94;67.51172;943.7061;;;;
2019/04/23 04:43:54;;;;;;;10.1;7.6;;;;;;;9.91;67.69043;943.6932;;;;
2019/04/23 04:46:19;;;;;;;11.9;7.3;;;;;;;9.93;68.1543;943.6649;;;;
2019/04/23 04:48:45;;;;;;;12.5;7.1;;;;;;;10.02;67.73145;943.6747;;;;
2019/04/23 04:51:10;;;;;;;9.8;7.1;;;;;;;10.03;67.48926;943.652;;;;
2019/04/23 04:53:48;;;;;;;11.5;7;;;;;;;10.01;67.65918;943.6462;;;;
2019/04/23 04:56:12;;;;;;;10.2;7.2;;;;;;;9.98;67.88574;943.6323;;;;
2019/04/23 04:58:37;;;;;;;11.3;7.3;;;;;;;10;67.69238;943.6431;;;;
2019/04/23 05:01:02;;;;;;;9.5;7.2;;;;;;;10.08;67.69336;943.646;;;;
2019/04/23 05:03:27;;;;;;;10.4;7.8;;;;;;;10.15;67.33594;943.5901;;;;
2019/04/23 05:05:52;;;;;;;10.2;6.9;;;;;;;10.13;67.56348;943.6479;;;;
2019/04/23 05:08:17;;;;;;;8.5;7;;;;;;;10.11;67.52539;943.65;;;;
2019/04/23 05:10:45;;;;;;;10.6;7.4;;;;;;;10.16;67.22168;943.6951;;;;
2019/04/23 05:13:10;;;;;;;14.4;7.8;;;;;;;10.15;67.40527;943.7178;;;;
2019/04/23 05:15:36;;;;;;;10.9;7.3;;;;;;;10.33;66.81055;943.7288;;;;
2019/04/23 05:18:06;;;;;;;12.7;7.8;;;;;;;10.19;67.91797;943.6873;;;;
2019/04/23 05:20:36;;;;;;;9.7;7.5;;;;;;;10.33;66.84668;943.7366;;;;
2019/04/23 05:25:40;;;;;;;13.5;7.9;;;;;;;10.25;67.13086;943.7524;;;;
2019/04/23 05:28:18;;;;;;;9.5;7.7;;;;;;;10.37;66.96582;943.7366;;;;
2019/04/23 05:30:43;;;;;;;9.7;7.5;;;;;;;10.43;67.25195;943.8091;;;;
2019/04/23 05:33:08;;;;;;;12.5;7.8;;;;;;;10.42;66.73145;943.7767;;;;
2019/04/23 05:35:34;;;;;;;11.9;7.8;;;;;;;10.5;66.84766;943.7541;;;;
2019/04/23 05:37:59;;;;;;;12.8;7.8;;;;;;;10.58;66.0293;943.6486;;;;
2019/04/23 05:40:24;;;;;;;9.9;7.7;;;;;;;10.51;66.56055;943.7009;;;;
2019/04/23 05:42:51;;;;;;;10.2;7.2;;;;;;;10.68;66.63477;943.7122;;;;
2019/04/23 05:45:18;;;;;;;9.3;7.3;;;;;;;10.81;65.74219;943.6912;;;;
2019/04/23 05:47:44;;;;;;;12.1;7.7;;;;;;;10.66;66.64258;943.6295;;;;
2019/04/23 05:50:09;;;;;;;9.3;7.7;;;;;;;10.74;66.30859;943.6489;;;;
2019/04/23 05:52:36;;;;;;;12;7.7;;;;;;;10.85;65.83984;943.6901;;;;
2019/04/23 05:55:01;;;;;;;11.4;7.7;;;;;;;10.94;65.63477;943.7419;;;;
2019/04/23 05:57:29;;;;;;;10.6;8.2;;;;;;;10.97;65.1543;943.7209;;;;
2019/04/23 05:59:55;;;;;;;11.8;8;;;;;;;11.14;65.13184;943.7075;;;;
2019/04/23 06:02:19;;;;;;;10.5;8.4;;;;;;;11.19;64.48145;943.7349;;;;
2019/04/23 06:04:44;;;;;;;17.6;8.8;;;;;;;11.05;65.5459;943.7453;;;;
2019/04/23 06:07:09;;;;;;;13.4;8.2;;;;;;;11.06;65.41992;943.7649;;;;
2019/04/23 06:09:37;;;;;;;14.9;8.6;;;;;;;11.07;65.25977;943.7769;;;;
2019/04/23 06:12:07;;;;;;;12.1;8.7;;;;;;;11.23;65.01953;943.7553;;;;
2019/04/23 06:14:31;;;;;;;10.5;7.9;;;;;;;11.35;64.72656;943.8237;;;;
2019/04/23 06:16:59;;;;;;;14.8;8.5;;;;;;;11.36;64.84375;943.7881;;;;
2019/04/23 06:19:25;;;;;;;9.7;8;;;;;;;11.45;64.37012;943.7868;;;;
2019/04/23 06:22:08;;;;;;;10.2;8.1;;;;;;;11.53;63.36426;943.8295;;;;
2019/04/23 06:24:49;;;;;;;11.4;8;;;;;;;11.56;64.59473;943.8088;;;;
2019/04/23 06:27:15;;;;;;;10.8;7.9;;;;;;;11.75;62.95703;943.8174;;;;
2019/04/23 06:29:46;;;;;;;11.4;8.1;;;;;;;11.98;63.85742;943.812;;;;
2019/04/23 06:32:19;;;;;;;11.2;8.5;;;;;;;12.09;62.9834;943.8617;;;;
2019/04/23 06:34:44;;;;;;;12.4;7.9;;;;;;;12.22;62.9668;943.8862;;;;
2019/04/23 06:37:26;;;;;;;13.4;8;;;;;;;12.11;62.42969;943.8416;;;;
2019/04/23 06:39:51;;;;;;;11.7;8.2;;;;;;;12.24;62.05566;943.8445;;;;
2019/04/23 06:44:43;;;;;;;11;7.8;;;;;;;12.44;61.68945;943.7706;;;;
2019/04/23 06:47:14;;;;;;;10;7.9;;;;;;;12.45;60.95996;943.8713;;;;
2019/04/23 06:49:37;;;;;;;9.9;8.1;;;;;;;12.55;60.41797;943.8189;;;;
2019/04/23 06:52:01;;;;;;;12.6;7.8;;;;;;;12.67;60.59668;943.7389;;;;
2019/04/23 06:54:27;;;;;;;11.2;7.6;;;;;;;12.95;59.55859;943.7969;;;;
2019/04/23 06:56:57;;;;;;;12.1;7.5;;;;;;;13.11;58.61523;943.891;;;;
2019/04/23 06:59:27;;;;;;;12.1;7.6;;;;;;;13.21;58.93066;943.8205;;;;
2019/04/23 07:01:52;;;;;;;12.9;7.7;;;;;;;13.14;58.65527;943.8044;;;;
2019/04/23 07:04:17;;;;;;;12;7.5;;;;;;;13.3;58.43164;943.8256;;;;
2019/04/23 07:06:46;;;;;;;10.9;7.1;;;;;;;13.53;56.69629;943.879;;;;
2019/04/23 07:09:10;;;;;;;11.3;7.6;;;;;;;13.7;57.30078;943.936;;;;
2019/04/23 07:11:36;;;;;;;11.5;7.7;;;;;;;13.6;57.77539;943.9156;;;;
2019/04/23 07:14:01;;;;;;;10.4;7.1;;;;;;;13.83;57.02734;943.8777;;;;
2019/04/23 07:16:29;;;;;;;10.4;7.5;;;;;;;13.78;58.24121;943.7915;;;;
2019/04/23 07:18:59;;;;;;;9.6;7.6;;;;;;;13.93;56.27246;943.8208;;;;
2019/04/23 07:21:24;;;;;;;11.5;7;;;;;;;13.88;55.55762;943.8531;;;;
2019/04/23 07:23:51;;;;;;;10.5;7.4;;;;;;;14.17;54.53418;943.834;;;;
2019/04/23 07:26:16;;;;;;;11.1;7.3;;;;;;;13.87;55.38086;943.8;;;;
2019/04/23 07:28:41;;;;;;;8.5;7.2;;;;;;;14.05;55.08984;943.8378;;;;
2019/04/23 07:31:06;;;;;;;11.2;7.5;;;;;;;14.14;55.59082;943.8798;;;;
2019/04/23 07:33:32;;;;;;;9.6;6.7;;;;;;;14.55;54.9668;943.7912;;;;
2019/04/23 07:35:57;;;;;;;7.7;6.6;;;;;;;14.67;53.8291;943.7861;;;;
2019/04/23 07:38:29;;;;;;;13.3;7.3;;;;;;;14.51;53.97363;943.7788;;;;
2019/04/23 07:40:57;;;;;;;10.2;7.4;;;;;;;14.48;54.1543;943.8527;;;;
2019/04/23 07:43:23;;;;;;;11.6;7.2;;;;;;;14.69;54.90332;943.6847;;;;
2019/04/23 07:48:06;;;;;;;11.7;7.6;;;;;;;15.23;53.20898;943.7377;;;;
2019/04/23 07:50:31;;;;;;;13.5;7.4;;;;;;;15.08;54.53223;943.7338;;;;
2019/04/23 07:52:56;;;;;;;10.1;7.6;;;;;;;15.34;52.34863;943.7115;;;;
2019/04/23 07:55:22;;;;;;;11.4;6.9;;;;;;;15.58;53.12305;943.7363;;;;
2019/04/23 07:57:48;;;;;;;13.5;7.2;;;;;;;15.92;50.89941;943.7617;;;;
2019/04/23 08:00:13;;;;;;;10.2;7.3;;;;;;;16.05;51.95313;943.743;;;;
2019/04/23 08:02:50;;;;;;;13.4;7.4;;;;;;;15.85;50.15527;943.7427;;;;
2019/04/23 08:05:25;;;;;;;12;8.9;;;;;;;15.85;50.66992;943.7208;;;;
2019/04/23 08:08:01;;;;;;;11.7;8.2;;;;;;;15.79;50.39355;943.6318;;;;
2019/04/23 08:10:27;;;;;;;11.6;7.4;;;;;;;15.93;51.27441;943.5966;;;;
2019/04/23 08:13:01;;;;;;;10.4;7.5;;;;;;;15.99;50.9541;943.7294;;;;
2019/04/23 08:15:30;;;;;;;12;7.4;;;;;;;16.17;50.41309;943.7204;;;;
2019/04/23 08:17:55;;;;;;;11.6;7.2;;;;;;;16.42;50.24316;943.6813;;;;
2019/04/23 08:20:20;;;;;;;12.4;7.2;;;;;;;16.54;48.94727;943.6882;;;;
2019/04/23 08:23:08;;;;;;;12.7;7.2;;;;;;;16.81;48.29785;943.7372;;;;
2019/04/23 08:27:57;;;;;;;11.6;7.3;;;;;;;16.15;48.97363;943.7484;;;;
2019/04/23 08:30:31;;;;;;;13.4;6.7;;;;;;;16.65;50.96094;943.7867;;;;
2019/04/23 08:32:59;;;;;;;11.9;6.4;;;;;;;16.79;49.25586;943.7189;;;;
2019/04/23 08:35:24;;;;;;;11.4;6.6;;;;;;;17.05;47.19922;943.6744;;;;
2019/04/23 08:37:50;;;;;;;10.7;6.8;;;;;;;16.88;48.45801;943.7136;;;;
2019/04/23 08:40:15;;;;;;;14.3;9;;;;;;;16.55;49.3457;943.7296;;;;
2019/04/23 08:42:51;;;;;;;13.9;7.5;;;;;;;17.01;48.13281;943.7191;;;;
2019/04/23 08:45:13;;;;;;;17.9;7.1;;;;;;;16.85;47.64648;943.7054;;;;
2019/04/23 08:47:50;;;;;;;11.8;6.8;;;;;;;17.07;47.07324;943.6796;;;;
2019/04/23 08:50:22;;;;;;;15;7.4;;;;;;;17.2;47.60254;943.685;;;;
2019/04/23 08:52:56;;;;;;;11.2;7;;;;;;;17.28;47.2959;943.6666;;;;
2019/04/23 08:55:23;;;;;;;11.9;6.9;;;;;;;17.23;47.01953;943.5806;;;;
2019/04/23 08:57:48;;;;;;;11.1;7.1;;;;;;;17.41;47.33203;943.6033;;;;
2019/04/23 09:00:20;;;;;;;10.1;6.3;;;;;;;17.72;46.05273;943.5027;;;;
2019/04/23 09:02:43;;;;;;;16;7.1;;;;;;;17.83;46.04004;943.4597;;;;
2019/04/23 09:05:08;;;;;;;13.3;6.8;;;;;;;17.77;46.83203;943.4515;;;;
2019/04/23 09:07:34;;;;;;;14.4;6.8;;;;;;;17.82;46.19141;943.461;;;;
2019/04/23 09:09:59;;;;;;;13.9;7.1;;;;;;;18.21;45.87012;943.5223;;;;
2019/04/23 09:12:26;;;;;;;17.3;8.6;;;;;;;18.4;46.33496;943.4833;;;;
2019/04/23 09:14:50;;;;;;;13.1;7;;;;;;;17.84;45.54785;943.4662;;;;
2019/04/23 09:17:15;;;;;;;13.5;6.7;;;;;;;18.07;45.59473;943.5032;;;;
2019/04/23 09:19:45;;;;;;;15;6.3;;;;;;;18.35;44.53223;943.4533;;;;
2019/04/23 09:22:13;;;;;;;18.4;7.3;;;;;;;18.24;45.14453;943.4877;;;;
2019/04/23 09:24:42;;;;;;;10.8;6.7;;;;;;;17.73;45.66699;943.4225;;;;
2019/04/23 09:27:04;;;;;;;11.7;6.1;;;;;;;18.2;44.85742;943.4562;;;;
2019/04/23 09:29:29;;;;;;;15.8;7.1;;;;;;;18.03;45.42773;943.4835;;;;
2019/04/23 09:32:03;;;;;;;12.4;6.4;;;;;;;18.33;43.83691;943.5555;;;;
2019/04/23 09:34:33;;;;;;;11.3;6;;;;;;;18.93;44.34375;943.5173;;;;
2019/04/23 09:39:29;;;;;;;10.4;6.3;;;;;;;18.93;43.34375;943.6262;;;;
2019/04/23 09:44:23;;;;;;;12.5;6.5;;;;;;;18.94;42.88574;943.5381;;;;
2019/04/23 09:46:49;;;;;;;11.7;6.8;;;;;;;18.51;43.59766;943.6331;;;;
2019/04/23 09:49:09;;;;;;;13.1;6.5;;;;;;;18.86;44.05469;943.551;;;;
2019/04/23 09:51:35;;;;;;;13.6;6.6;;;;;;;19.07;44.11133;943.6021;;;;
2019/04/23 09:54:01;;;;;;;14.4;6.7;;;;;;;19.39;42.36523;943.558;;;;
2019/04/23 09:56:25;;;;;;;11.1;6.6;;;;;;;19.21;44.26563;943.5753;;;;
2019/04/23 09:58:50;;;;;;;11.8;6.4;;;;;;;19.01;43.97559;943.5514;;;;
2019/04/23 10:01:18;;;;;;;13.4;6.9;;;;;;;19.28;42.99023;943.5017;;;;
2019/04/23 10:03:43;;;;;;;11;6.3;;;;;;;19.78;42.98047;943.5742;;;;
2019/04/23 10:06:09;;;;;;;14.9;7.2;;;;;;;19.79;43.48828;943.59;;;;
2019/04/23 10:08:36;;;;;;;12.9;6.7;;;;;;;19.46;42.79492;943.5463;;;;
2019/04/23 10:11:02;;;;;;;13.6;6.2;;;;;;;19.96;42.64355;943.6094;;;;
2019/04/23 10:13:26;;;;;;;13.1;6.9;;;;;;;19.44;41.42773;943.567;;;;
2019/04/23 10:15:51;;;;;;;13.4;6.4;;;;;;;20.67;41.85059;943.601;;;;
2019/04/23 10:18:17;;;;;;;11.9;6.6;;;;;;;20.33;41.35742;943.5717;;;;
2019/04/23 10:20:42;;;;;;;11.3;6.7;;;;;;;20.5;41.0791;943.5561;;;;
2019/04/23 10:23:07;;;;;;;9.8;6.2;;;;;;;20.24;42.05762;943.5354;;;;
2019/04/23 10:25:32;;;;;;;9.9;6.5;;;;;;;20.39;42.14258;943.5831;;;;
2019/04/23 10:28:05;;;;;;;12.2;6.2;;;;;;;20.65;41.12793;943.4699;;;;
2019/04/23 10:30:29;;;;;;;14.6;6.3;;;;;;;21.2;39.86719;943.4391;;;;
2019/04/23 10:32:54;;;;;;;10.7;6.3;;;;;;;21.15;39.73242;943.3783;;;;
2019/04/23 10:35:19;;;;;;;15.4;6.2;;;;;;;21.39;38.2041;943.3723;;;;
2019/04/23 10:37:44;;;;;;;13.7;6;;;;;;;22.33;37.98926;943.4789;;;;
2019/04/23 10:40:09;;;;;;;13.6;6.3;;;;;;;21.45;36.84863;943.4473;;;;
2019/04/23 10:42:35;;;;;;;11.3;5.9;;;;;;;22.03;38.70898;943.4889;;;;
2019/04/23 10:45:10;;;;;;;10.6;5.9;;;;;;;21.78;37.44531;943.4063;;;;
2019/04/23 10:52:21;;;;;;;11.5;5.9;;;;;;;21.12;40.12012;943.2277;;;;
2019/04/23 10:54:50;;;;;;;14.3;5.6;;;;;;;21.1;39.2793;943.2653;;;;
2019/04/23 10:57:25;;;;;;;12.4;6;;;;;;;21.38;39.62305;943.2084;;;;
2019/04/23 10:59:54;;;;;;;11.9;5.8;;;;;;;21.15;39.44922;943.1349;;;;
2019/04/23 11:02:21;;;;;;;12.9;5.8;;;;;;;21.13;39.48242;943.1353;;;;
2019/04/23 11:04:46;;;;;;;12.2;6.2;;;;;;;21.25;39.44531;943.123;;;;
2019/04/23 11:07:11;;;;;;;12.4;5.5;;;;;;;21.42;40.22949;943.2053;;;;
2019/04/23 11:09:36;;;;;;;13.4;5.6;;;;;;;21.41;37.80371;943.2419;;;;
2019/04/23 11:14:38;;;;;;;11.3;5.7;;;;;;;21.35;38.33105;943.258;;;;
2019/04/23 11:16:51;;;;;;;16.2;8.1;;;;;;;21.24;38.23828;943.2151;;;;
2019/04/23 11:19:17;;;;;;;11.7;5.4;;;;;;;21.46;37.93848;943.1764;;;;
2019/04/23 11:21:43;;;;;;;10.8;4.9;;;;;;;21.68;37.50781;943.1035;;;;
2019/04/23 11:24:08;;;;;;;12.8;5.6;;;;;;;21.51;38.9375;943.1764;;;;
2019/04/23 11:26:39;;;;;;;13.4;6.3;;;;;;;21.65;38.12012;943.17;;;;
2019/04/23 11:29:08;;;;;;;10.6;5.5;;;;;;;21.7;37.5918;943.1699;;;;
2019/04/23 11:31:34;;;;;;;11.3;5.1;;;;;;;21.64;36.76953;943.1675;;;;
2019/04/23 11:34:01;;;;;;;11.4;5.2;;;;;;;21.22;37.39746;943.2101;;;;
2019/04/23 11:36:28;;;;;;;10.5;4.5;;;;;;;21.64;37.32617;943.2495;;;;
2019/04/23 11:38:54;;;;;;;10.4;4.8;;;;;;;21.33;37.28809;943.2827;;;;
2019/04/23 11:41:21;;;;;;;9.5;5;;;;;;;20.97;37.96777;943.3102;;;;
2019/04/23 11:43:45;;;;;;;11.4;4.9;;;;;;;21.11;37.4707;943.2119;;;;
2019/04/23 11:46:11;;;;;;;10.2;4.9;;;;;;;21.26;37.90918;943.2946;;;;
2019/04/23 11:48:37;;;;;;;12.8;5.7;;;;;;;21.41;37.94629;943.264;;;;
2019/04/23 11:51:02;;;;;;;11.3;5.2;;;;;;;21.51;37.69434;943.2633;;;;
2019/04/23 11:53:26;;;;;;;9.8;5;;;;;;;22;36.66992;943.325;;;;
2019/04/23 11:55:52;;;;;;;10.2;4.7;;;;;;;21.8;37.79004;943.2992;;;;
2019/04/23 11:58:17;;;;;;;9.1;5.3;;;;;;;21.61;37.00488;943.354;;;;
2019/04/23 12:03:16;;;;;;;10.5;5.3;;;;;;;21.78;38.53418;943.2981;;;;
2019/04/23 12:08:28;;;;;;;14.1;5.3;;;;;;;21.84;36.73926;943.3055;;;;
2019/04/23 12:10:49;;;;;;;10.4;4.9;;;;;;;22.31;37.83301;943.3694;;;;
2019/04/23 12:13:24;;;;;;;12.4;5.3;;;;;;;21.81;37.96875;943.363;;;;
2019/04/23 12:15:33;;;;;;;11.4;5.8;;;;;;;22.4;36.26367;943.4012;;;;
2019/04/23 12:18:00;;;;;;;13.3;5.2;;;;;;;22.14;37.77148;943.4075;;;;
2019/04/23 12:22:50;;;;;;;15.1;5.3;;;;;;;22.14;38.77832;943.3959;;;;
2019/04/23 12:25:17;;;;;;;13.5;5.2;;;;;;;22.47;36.69629;943.3889;;;;
2019/04/23 12:27:42;;;;;;;11.3;5.6;;;;;;;22.19;37.5625;943.4254;;;;
2019/04/23 12:30:07;;;;;;;7.7;5;;;;;;;22.18;36.60156;943.454;;;;
2019/04/23 12:32:32;;;;;;;10.3;5.1;;;;;;;22.04;37.34766;943.4914;;;;
2019/04/23 12:34:57;;;;;;;9.9;5.4;;;;;;;22.37;36.86621;943.4498;;;;
2019/04/23 12:37:35;;;;;;;13.2;5.3;;;;;;;22.15;37.89063;943.4414;;;;
2019/04/23 12:39:50;;;;;;;11.9;5.8;;;;;;;22.49;37.25684;943.4188;;;;
2019/04/23 12:42:15;;;;;;;10.5;5.2;;;;;;;22.68;38.0791;943.4194;;;;
2019/04/23 12:44:45;;;;;;;11.6;5.8;;;;;;;22.99;36.18164;943.3993;;;;
2019/04/23 12:47:10;;;;;;;10.4;5.2;;;;;;;23.5;35.58203;943.3873;;;;
2019/04/23 12:49:38;;;;;;;10.8;4.8;;;;;;;23.99;34.68066;943.3674;;;;
2019/04/23 12:52:03;;;;;;;11.5;5.5;;;;;;;24.16;35.3252;943.3775;;;;
2019/04/23 12:54:28;;;;;;;11.1;5.3;;;;;;;24.52;35.30566;943.3194;;;;
2019/04/23 12:56:53;;;;;;;16.6;5.7;;;;;;;24.63;33.49121;943.3254;;;;
2019/04/23 12:59:18;;;;;;;13.1;5.2;;;;;;;25.03;32.40039;943.3491;;;;
2019/04/23 13:01:44;;;;;;;14.7;5.4;;;;;;;24.73;32.62891;943.275;;;;
2019/04/23 13:04:08;;;;;;;9.5;4.8;;;;;;;24.37;34.25781;943.2476;;;;
2019/04/23 13:06:36;;;;;;;9.1;5.2;;;;;;;26.03;32.26953;943.2439;;;;
2019/04/23 13:09:02;;;;;;;11.1;5;;;;;;;25.04;33.36719;943.2598;;;;
2019/04/23 13:11:27;;;;;;;10.8;4.9;;;;;;;24.84;32.17188;943.2209;;;;
2019/04/23 13:13:54;;;;;;;9.9;4.7;;;;;;;24.67;33.6377;943.1297;;;;
2019/04/23 13:16:19;;;;;;;8.1;4.5;;;;;;;25.11;33.19336;943.1816;;;;
2019/04/23 13:18:47;;;;;;;14.4;4.5;;;;;;;24.96;32.62207;943.1019;;;;
2019/04/23 13:21:13;;;;;;;8.7;4.3;;;;;;;24.68;31.93457;943.085;;;;
2019/04/23 13:26:05;;;;;;;9.9;4.7;;;;;;;25.51;32.24414;943.0619;;;;
2019/04/23 13:28:30;;;;;;;10.8;4.4;;;;;;;25.69;31.93457;943.017;;;;
2019/04/23 13:31:04;;;;;;;10.3;4.9;;;;;;;25.83;30.71387;942.9827;;;;
2019/04/23 13:33:34;;;;;;;13.1;4.6;;;;;;;25.39;31.85449;942.9698;;;;
2019/04/23 13:36:19;;;;;;;9.6;4.4;;;;;;;26.63;30.0625;942.9731;;;;
2019/04/23 13:38:54;;;;;;;11.6;4.7;;;;;;;26.83;30.28027;942.9468;;;;
2019/04/23 13:41:19;;;;;;;10.7;4.7;;;;;;;25.04;31.0293;942.9117;;;;
2019/04/23 13:43:47;;;;;;;7.7;4.5;;;;;;;25.19;32.10156;942.926;;;;
2019/04/23 13:46:12;;;;;;;9.4;4.6;;;;;;;24.76;32.16602;942.899;;;;
2019/04/23 13:48:37;;;;;;;7.8;4.5;;;;;;;24.66;32.23047;942.8315;;;;
2019/04/23 13:51:02;;;;;;;9.8;4.1;;;;;;;24.52;32.85156;942.8484;;;;
2019/04/23 13:53:27;;;;;;;10.3;4.4;;;;;;;24.27;33.04785;942.7863;;;;
2019/04/23 13:55:52;;;;;;;11.5;4.5;;;;;;;24.91;32.22461;942.8042;;;;
2019/04/23 13:58:17;;;;;;;7.5;4.1;;;;;;;24.5;33.20801;942.7784;;;;
2019/04/23 14:00:42;;;;;;;10.8;4.3;;;;;;;24.97;32.84863;942.8686;;;;
2019/04/23 14:03:08;;;;;;;6.6;3.8;;;;;;;24.9;33.1416;942.8073;;;;
2019/04/23 14:07:58;;;;;;;6.9;3.3;;;;;;;24.71;31.18555;942.7992;;;;
2019/04/23 14:10:23;;;;;;;11.1;4;;;;;;;24.33;32.5752;942.7983;;;;
2019/04/23 14:12:49;;;;;;;10.1;3.7;;;;;;;23.93;33.64063;942.7947;;;;
2019/04/23 14:15:17;;;;;;;9.7;3.8;;;;;;;23.94;34.53516;942.7879;;;;
2019/04/23 14:17:40;;;;;;;10.6;3.8;;;;;;;23.77;34.25879;942.7762;;;;
2019/04/23 14:20:06;;;;;;;9.9;3.7;;;;;;;23.64;34.17871;942.7432;;;;
2019/04/23 14:22:31;;;;;;;7.2;3.9;;;;;;;24.15;34.4082;942.7269;;;;
2019/04/23 14:24:56;;;;;;;9.5;4;;;;;;;23.96;33.88184;942.8191;;;;
2019/04/23 14:27:24;;;;;;;8.1;3.9;;;;;;;23.32;34.42676;942.8153;;;;
2019/04/23 14:29:49;;;;;;;7.5;3.5;;;;;;;22.82;34.94531;942.7644;;;;
2019/04/23 14:32:17;;;;;;;6.7;3.9;;;;;;;22.91;36.02148;942.744;;;;
2019/04/23 14:34:42;;;;;;;9.9;3.7;;;;;;;23.08;35.52441;942.803;;;;
2019/04/23 14:37:07;;;;;;;10.6;4.4;;;;;;;22.98;36.64355;942.7614;;;;
2019/04/23 14:41:57;;;;;;;10;4.4;;;;;;;24.32;34.36035;942.7698;;;;
2019/04/23 14:44:25;;;;;;;10.8;4;;;;;;;24.35;33.95898;942.7679;;;;
2019/04/23 14:46:49;;;;;;;10.5;4.2;;;;;;;24.33;34.7666;942.7498;;;;
2019/04/23 14:49:29;;;;;;;9.3;3.9;;;;;;;24.41;34.28516;942.6873;;;;
2019/04/23 14:51:52;;;;;;;9.4;4;;;;;;;24.42;34.07129;942.7236;;;;
2019/04/23 14:54:38;;;;;;;11.2;4.1;;;;;;;24.97;32.64648;942.8242;;;;
2019/04/23 14:57:16;;;;;;;7.8;4;;;;;;;24.38;34.0918;942.7715;;;;